Terminal Aerodrome Forecast
Issued by NWS

Home | Current Version | Previous Version | Text Only | Print | Product List | Glossary On
Versions: 1 2 3 4 5 6 7 8 9 10 11 12
000
FTUS43 KLSX 021735
TAFUIN
TAF
KUIN 021735Z 0218/0318 22009KT P6SM BKN250
      TEMPO 0310/0312 5SM BR=

USA.gov is the U.S. government's official web portal to all federal, state and local government web resources and services.